sensor_id;sensor_type;location;lat;lon;timestamp;temperature;humidity
25708;DHT22;13567;61.652;17.100;2022-10-18T00:00:18;5.80;99.90
25708;DHT22;13567;61.652;17.100;2022-10-18T00:02:45;5.90;99.90
25708;DHT22;13567;61.652;17.100;2022-10-18T00:05:12;5.90;99.90
25708;DHT22;13567;61.652;17.100;2022-10-18T00:07:39;5.90;99.90
25708;DHT22;13567;61.652;17.100;2022-10-18T00:10:07;5.80;99.90
25708;DHT22;13567;61.652;17.100;2022-10-18T00:12:35;5.80;99.90
25708;DHT22;13567;61.652;17.100;2022-10-18T00:15:04;5.80;99.90
25708;DHT22;13567;61.652;17.100;2022-10-18T00:17:37;5.80;99.90
25708;DHT22;13567;61.652;17.100;2022-10-18T00:20:05;5.70;99.90
25708;DHT22;13567;61.652;17.100;2022-10-18T00:22:37;5.60;99.90
25708;DHT22;13567;61.652;17.100;2022-10-18T00:25:06;5.40;99.90
25708;DHT22;13567;61.652;17.100;2022-10-18T00:27:34;5.30;99.90
25708;DHT22;13567;61.652;17.100;2022-10-18T00:30:01;5.30;99.90
25708;DHT22;13567;61.652;17.100;2022-10-18T00:32:28;5.30;99.90
25708;DHT22;13567;61.652;17.100;2022-10-18T00:34:55;5.20;99.90
25708;DHT22;13567;61.652;17.100;2022-10-18T00:37:22;5.20;99.90
25708;DHT22;13567;61.652;17.100;2022-10-18T00:39:49;5.30;99.90
25708;DHT22;13567;61.652;17.100;2022-10-18T00:42:29;5.30;99.90
25708;DHT22;13567;61.652;17.100;2022-10-18T00:47:30;5.30;99.90
25708;DHT22;13567;61.652;17.100;2022-10-18T00:50:00;5.40;99.90
25708;DHT22;13567;61.652;17.100;2022-10-18T00:52:35;5.40;99.90
25708;DHT22;13567;61.652;17.100;2022-10-18T00:55:04;5.30;99.90
25708;DHT22;13567;61.652;17.100;2022-10-18T00:57:32;5.40;99.90
25708;DHT22;13567;61.652;17.100;2022-10-18T01:00:00;5.40;99.90
25708;DHT22;13567;61.652;17.100;2022-10-18T01:02:27;5.50;99.90
25708;DHT22;13567;61.652;17.100;2022-10-18T01:04:55;5.40;99.90
25708;DHT22;13567;61.652;17.100;2022-10-18T01:07:37;5.40;99.90
25708;DHT22;13567;61.652;17.100;2022-10-18T01:10:36;5.30;99.90
25708;DHT22;13567;61.652;17.100;2022-10-18T01:30:40;5.30;99.90
25708;DHT22;13567;61.652;17.100;2022-10-18T01:33:26;5.20;99.90
25708;DHT22;13567;61.652;17.100;2022-10-18T01:38:32;5.20;99.90
25708;DHT22;13567;61.652;17.100;2022-10-18T01:41:01;5.10;99.90
25708;DHT22;13567;61.652;17.100;2022-10-18T01:43:29;5.00;99.90
25708;DHT22;13567;61.652;17.100;2022-10-18T01:45:59;4.90;99.90
25708;DHT22;13567;61.652;17.100;2022-10-18T01:48:26;4.90;99.90
25708;DHT22;13567;61.652;17.100;2022-10-18T01:50:55;4.70;99.90
25708;DHT22;13567;61.652;17.100;2022-10-18T01:53:27;4.70;99.90
25708;DHT22;13567;61.652;17.100;2022-10-18T01:58:43;4.40;99.90
25708;DHT22;13567;61.652;17.100;2022-10-18T02:01:31;4.40;99.90
25708;DHT22;13567;61.652;17.100;2022-10-18T02:07:00;4.40;99.90
25708;DHT22;13567;61.652;17.100;2022-10-18T02:09:37;4.30;99.90
25708;DHT22;13567;61.652;17.100;2022-10-18T02:12:09;4.20;99.90
25708;DHT22;13567;61.652;17.100;2022-10-18T02:14:38;4.20;99.90
25708;DHT22;13567;61.652;17.100;2022-10-18T02:17:09;4.20;99.90
25708;DHT22;13567;61.652;17.100;2022-10-18T02:19:43;4.20;99.90
25708;DHT22;13567;61.652;17.100;2022-10-18T02:22:12;4.20;99.90
25708;DHT22;13567;61.652;17.100;2022-10-18T02:24:52;4.30;99.90
25708;DHT22;13567;61.652;17.100;2022-10-18T02:27:20;4.40;99.90
25708;DHT22;13567;61.652;17.100;2022-10-18T02:29:48;4.40;99.90
25708;DHT22;13567;61.652;17.100;2022-10-18T02:32:38;4.40;99.90
25708;DHT22;13567;61.652;17.100;2022-10-18T02:35:09;4.50;99.90
25708;DHT22;13567;61.652;17.100;2022-10-18T02:37:39;4.50;99.90
25708;DHT22;13567;61.652;17.100;2022-10-18T02:40:08;4.60;99.90
25708;DHT22;13567;61.652;17.100;2022-10-18T02:42:39;4.70;99.90
25708;DHT22;13567;61.652;17.100;2022-10-18T02:45:10;4.70;99.90
25708;DHT22;13567;61.652;17.100;2022-10-18T02:47:37;4.80;99.90
25708;DHT22;13567;61.652;17.100;2022-10-18T02:50:04;4.80;99.90
25708;DHT22;13567;61.652;17.100;2022-10-18T02:52:32;4.70;99.90
25708;DHT22;13567;61.652;17.100;2022-10-18T02:54:58;4.70;99.90
25708;DHT22;13567;61.652;17.100;2022-10-18T02:57:27;4.70;99.90
25708;DHT22;13567;61.652;17.100;2022-10-18T02:59:54;4.70;99.90
25708;DHT22;13567;61.652;17.100;2022-10-18T03:02:21;4.70;99.90
25708;DHT22;13567;61.652;17.100;2022-10-18T03:04:48;4.80;99.90
25708;DHT22;13567;61.652;17.100;2022-10-18T03:07:15;4.90;99.90
25708;DHT22;13567;61.652;17.100;2022-10-18T03:09:42;5.00;99.90
25708;DHT22;13567;61.652;17.100;2022-10-18T03:12:09;5.10;99.90
25708;DHT22;13567;61.652;17.100;2022-10-18T03:14:36;5.00;99.90
25708;DHT22;13567;61.652;17.100;2022-10-18T03:17:03;5.00;99.90
25708;DHT22;13567;61.652;17.100;2022-10-18T03:19:30;4.90;99.90
25708;DHT22;13567;61.652;17.100;2022-10-18T03:21:57;5.00;99.90
25708;DHT22;13567;61.652;17.100;2022-10-18T03:24:24;5.00;99.90
25708;DHT22;13567;61.652;17.100;2022-10-18T03:26:51;4.90;99.90
25708;DHT22;13567;61.652;17.100;2022-10-18T03:29:18;4.90;99.90
25708;DHT22;13567;61.652;17.100;2022-10-18T03:31:45;4.80;99.90
25708;DHT22;13567;61.652;17.100;2022-10-18T03:34:12;4.80;99.90
25708;DHT22;13567;61.652;17.100;2022-10-18T03:36:39;4.80;99.90
25708;DHT22;13567;61.652;17.100;2022-10-18T03:39:07;4.70;99.90
25708;DHT22;13567;61.652;17.100;2022-10-18T03:41:34;4.70;99.90
25708;DHT22;13567;61.652;17.100;2022-10-18T03:44:01;4.60;99.90
25708;DHT22;13567;61.652;17.100;2022-10-18T03:46:28;4.60;99.90
25708;DHT22;13567;61.652;17.100;2022-10-18T03:48:55;4.50;99.90
25708;DHT22;13567;61.652;17.100;2022-10-18T03:51:22;4.40;99.90
25708;DHT22;13567;61.652;17.100;2022-10-18T03:53:49;4.20;99.90
25708;DHT22;13567;61.652;17.100;2022-10-18T03:56:16;4.10;99.90
25708;DHT22;13567;61.652;17.100;2022-10-18T03:58:42;4.10;99.90
25708;DHT22;13567;61.652;17.100;2022-10-18T04:01:09;4.00;99.90
25708;DHT22;13567;61.652;17.100;2022-10-18T04:03:37;4.00;99.90
25708;DHT22;13567;61.652;17.100;2022-10-18T04:06:04;4.00;99.90
25708;DHT22;13567;61.652;17.100;2022-10-18T04:08:31;4.10;99.90
25708;DHT22;13567;61.652;17.100;2022-10-18T04:10:58;4.10;99.90
25708;DHT22;13567;61.652;17.100;2022-10-18T04:13:25;4.10;99.90
25708;DHT22;13567;61.652;17.100;2022-10-18T04:15:52;4.20;99.90
25708;DHT22;13567;61.652;17.100;2022-10-18T04:18:19;4.30;99.90
25708;DHT22;13567;61.652;17.100;2022-10-18T04:20:46;4.40;99.90
25708;DHT22;13567;61.652;17.100;2022-10-18T04:23:13;4.50;99.90
25708;DHT22;13567;61.652;17.100;2022-10-18T04:25:40;4.60;99.90
25708;DHT22;13567;61.652;17.100;2022-10-18T04:28:06;4.70;99.90
25708;DHT22;13567;61.652;17.100;2022-10-18T04:30:34;4.80;99.90
25708;DHT22;13567;61.652;17.100;2022-10-18T04:33:00;4.80;99.90
25708;DHT22;13567;61.652;17.100;2022-10-18T04:35:27;4.90;99.90
25708;DHT22;13567;61.652;17.100;2022-10-18T04:37:55;4.90;99.90
25708;DHT22;13567;61.652;17.100;2022-10-18T04:40:22;4.90;99.90
25708;DHT22;13567;61.652;17.100;2022-10-18T04:42:49;5.00;99.90
25708;DHT22;13567;61.652;17.100;2022-10-18T04:45:16;5.10;99.90
25708;DHT22;13567;61.652;17.100;2022-10-18T04:47:43;5.20;99.90
25708;DHT22;13567;61.652;17.100;2022-10-18T04:50:10;5.40;99.90
25708;DHT22;13567;61.652;17.100;2022-10-18T04:52:37;5.50;99.90
25708;DHT22;13567;61.652;17.100;2022-10-18T04:55:04;5.60;99.90
25708;DHT22;13567;61.652;17.100;2022-10-18T04:57:31;5.60;99.90
25708;DHT22;13567;61.652;17.100;2022-10-18T04:59:59;5.60;99.90
25708;DHT22;13567;61.652;17.100;2022-10-18T05:02:26;5.70;99.90
25708;DHT22;13567;61.652;17.100;2022-10-18T05:04:53;5.70;99.90
25708;DHT22;13567;61.652;17.100;2022-10-18T05:07:19;5.70;99.90
25708;DHT22;13567;61.652;17.100;2022-10-18T05:09:47;5.80;99.90
25708;DHT22;13567;61.652;17.100;2022-10-18T05:12:14;5.80;99.90
25708;DHT22;13567;61.652;17.100;2022-10-18T05:14:41;5.70;99.90
25708;DHT22;13567;61.652;17.100;2022-10-18T05:17:08;5.80;99.90
25708;DHT22;13567;61.652;17.100;2022-10-18T05:19:35;5.90;99.90
25708;DHT22;13567;61.652;17.100;2022-10-18T05:22:02;5.90;99.90
25708;DHT22;13567;61.652;17.100;2022-10-18T05:24:29;5.90;99.90
25708;DHT22;13567;61.652;17.100;2022-10-18T05:26:56;5.90;99.90
25708;DHT22;13567;61.652;17.100;2022-10-18T05:29:23;5.90;99.90
25708;DHT22;13567;61.652;17.100;2022-10-18T05:31:50;5.90;99.90
25708;DHT22;13567;61.652;17.100;2022-10-18T05:34:17;5.90;99.90
25708;DHT22;13567;61.652;17.100;2022-10-18T05:36:46;5.90;99.90
25708;DHT22;13567;61.652;17.100;2022-10-18T05:39:15;5.80;99.90
25708;DHT22;13567;61.652;17.100;2022-10-18T05:41:42;5.90;99.90
25708;DHT22;13567;61.652;17.100;2022-10-18T05:44:09;5.80;99.90
25708;DHT22;13567;61.652;17.100;2022-10-18T05:46:36;5.80;99.90
25708;DHT22;13567;61.652;17.100;2022-10-18T05:49:03;5.80;99.90
25708;DHT22;13567;61.652;17.100;2022-10-18T05:51:30;5.80;99.90
25708;DHT22;13567;61.652;17.100;2022-10-18T05:53:57;5.80;99.90
25708;DHT22;13567;61.652;17.100;2022-10-18T05:56:24;5.70;99.90
25708;DHT22;13567;61.652;17.100;2022-10-18T05:58:51;5.80;99.90
25708;DHT22;13567;61.652;17.100;2022-10-18T06:01:18;5.70;99.90
25708;DHT22;13567;61.652;17.100;2022-10-18T06:03:46;5.70;99.90
25708;DHT22;13567;61.652;17.100;2022-10-18T06:06:14;5.70;99.90
25708;DHT22;13567;61.652;17.100;2022-10-18T06:08:42;5.70;99.90
25708;DHT22;13567;61.652;17.100;2022-10-18T06:11:11;5.70;99.90
25708;DHT22;13567;61.652;17.100;2022-10-18T06:13:43;5.70;99.90
25708;DHT22;13567;61.652;17.100;2022-10-18T06:16:12;5.70;99.90
25708;DHT22;13567;61.652;17.100;2022-10-18T06:18:39;5.70;99.90
25708;DHT22;13567;61.652;17.100;2022-10-18T06:21:07;5.80;99.90
25708;DHT22;13567;61.652;17.100;2022-10-18T06:23:34;5.80;99.90
25708;DHT22;13567;61.652;17.100;2022-10-18T06:26:04;5.90;99.90
25708;DHT22;13567;61.652;17.100;2022-10-18T06:28:36;5.90;99.90
25708;DHT22;13567;61.652;17.100;2022-10-18T06:31:05;5.90;99.90
25708;DHT22;13567;61.652;17.100;2022-10-18T06:33:33;5.90;99.90
25708;DHT22;13567;61.652;17.100;2022-10-18T06:36:06;6.00;99.90
25708;DHT22;13567;61.652;17.100;2022-10-18T06:38:33;6.00;99.90
25708;DHT22;13567;61.652;17.100;2022-10-18T06:41:02;6.00;99.90
25708;DHT22;13567;61.652;17.100;2022-10-18T06:43:29;6.00;99.90
25708;DHT22;13567;61.652;17.100;2022-10-18T06:45:56;6.10;99.90
25708;DHT22;13567;61.652;17.100;2022-10-18T06:48:23;6.10;99.90
25708;DHT22;13567;61.652;17.100;2022-10-18T06:50:55;6.20;99.90
25708;DHT22;13567;61.652;17.100;2022-10-18T06:53:28;6.40;99.90
25708;DHT22;13567;61.652;17.100;2022-10-18T06:56:03;6.40;99.90
25708;DHT22;13567;61.652;17.100;2022-10-18T06:58:30;6.50;99.90
25708;DHT22;13567;61.652;17.100;2022-10-18T07:00:58;6.60;99.90
25708;DHT22;13567;61.652;17.100;2022-10-18T07:03:25;6.70;99.90
25708;DHT22;13567;61.652;17.100;2022-10-18T07:05:52;6.70;99.90
25708;DHT22;13567;61.652;17.100;2022-10-18T07:08:19;6.80;99.90
25708;DHT22;13567;61.652;17.100;2022-10-18T07:10:51;6.90;99.90
25708;DHT22;13567;61.652;17.100;2022-10-18T07:13:19;7.10;99.90
25708;DHT22;13567;61.652;17.100;2022-10-18T07:16:07;7.20;99.90
25708;DHT22;13567;61.652;17.100;2022-10-18T07:18:40;7.50;99.90
25708;DHT22;13567;61.652;17.100;2022-10-18T07:21:09;7.60;99.90
25708;DHT22;13567;61.652;17.100;2022-10-18T07:23:38;7.70;99.90
25708;DHT22;13567;61.652;17.100;2022-10-18T07:26:40;7.70;99.90
25708;DHT22;13567;61.652;17.100;2022-10-18T07:29:10;7.60;99.90
25708;DHT22;13567;61.652;17.100;2022-10-18T07:31:37;7.60;99.90
25708;DHT22;13567;61.652;17.100;2022-10-18T07:34:05;7.50;99.90
25708;DHT22;13567;61.652;17.100;2022-10-18T07:36:33;7.30;99.90
25708;DHT22;13567;61.652;17.100;2022-10-18T07:39:00;7.20;99.90
25708;DHT22;13567;61.652;17.100;2022-10-18T07:41:27;7.20;99.90
25708;DHT22;13567;61.652;17.100;2022-10-18T07:43:54;7.20;99.90
25708;DHT22;13567;61.652;17.100;2022-10-18T07:46:22;7.20;99.90
25708;DHT22;13567;61.652;17.100;2022-10-18T07:48:49;7.20;99.90
25708;DHT22;13567;61.652;17.100;2022-10-18T07:51:17;7.30;99.90
25708;DHT22;13567;61.652;17.100;2022-10-18T07:53:45;7.40;99.90
25708;DHT22;13567;61.652;17.100;2022-10-18T07:56:19;7.80;99.90
25708;DHT22;13567;61.652;17.100;2022-10-18T07:58:52;9.50;99.90
25708;DHT22;13567;61.652;17.100;2022-10-18T08:01:21;11.90;99.90
25708;DHT22;13567;61.652;17.100;2022-10-18T08:03:48;13.80;99.90
25708;DHT22;13567;61.652;17.100;2022-10-18T08:06:17;15.50;99.90
25708;DHT22;13567;61.652;17.100;2022-10-18T08:08:45;16.40;99.90
25708;DHT22;13567;61.652;17.100;2022-10-18T08:11:31;17.30;99.90
25708;DHT22;13567;61.652;17.100;2022-10-18T08:13:58;17.30;98.30
25708;DHT22;13567;61.652;17.100;2022-10-18T08:16:27;17.80;98.00
25708;DHT22;13567;61.652;17.100;2022-10-18T08:18:56;18.50;94.90
25708;DHT22;13567;61.652;17.100;2022-10-18T08:21:24;18.60;94.20
25708;DHT22;13567;61.652;17.100;2022-10-18T08:23:51;18.40;93.60
25708;DHT22;13567;61.652;17.100;2022-10-18T08:26:20;18.70;92.70
25708;DHT22;13567;61.652;17.100;2022-10-18T08:28:48;19.00;92.20
25708;DHT22;13567;61.652;17.100;2022-10-18T08:31:29;19.10;90.00
25708;DHT22;13567;61.652;17.100;2022-10-18T08:33:56;20.00;90.90
25708;DHT22;13567;61.652;17.100;2022-10-18T08:36:23;19.70;88.80
25708;DHT22;13567;61.652;17.100;2022-10-18T08:38:51;20.20;87.60
25708;DHT22;13567;61.652;17.100;2022-10-18T08:44:23;19.40;88.20
25708;DHT22;13567;61.652;17.100;2022-10-18T08:47:05;18.80;88.80
25708;DHT22;13567;61.652;17.100;2022-10-18T08:49:53;18.40;90.20
25708;DHT22;13567;61.652;17.100;2022-10-18T08:55:37;16.10;94.50
25708;DHT22;13567;61.652;17.100;2022-10-18T08:58:26;16.00;94.80
25708;DHT22;13567;61.652;17.100;2022-10-18T09:04:00;15.90;96.10
25708;DHT22;13567;61.652;17.100;2022-10-18T09:09:30;15.10;96.30
25708;DHT22;13567;61.652;17.100;2022-10-18T09:12:39;14.20;97.00
25708;DHT22;13567;61.652;17.100;2022-10-18T09:15:15;14.20;98.40
25708;DHT22;13567;61.652;17.100;2022-10-18T09:21:43;15.30;97.60
25708;DHT22;13567;61.652;17.100;2022-10-18T09:25:08;16.90;94.40
25708;DHT22;13567;61.652;17.100;2022-10-18T09:27:18;17.20;93.40
25708;DHT22;13567;61.652;17.100;2022-10-18T09:36:12;17.60;93.10
25708;DHT22;13567;61.652;17.100;2022-10-18T09:38:20;19.80;89.70
25708;DHT22;13567;61.652;17.100;2022-10-18T09:40:59;21.20;85.00
25708;DHT22;13567;61.652;17.100;2022-10-18T09:43:58;21.60;77.70
25708;DHT22;13567;61.652;17.100;2022-10-18T09:46:31;21.00;77.30
25708;DHT22;13567;61.652;17.100;2022-10-18T09:49:03;21.70;76.00
25708;DHT22;13567;61.652;17.100;2022-10-18T09:51:39;21.60;75.20
25708;DHT22;13567;61.652;17.100;2022-10-18T09:54:33;20.90;77.60
25708;DHT22;13567;61.652;17.100;2022-10-18T09:57:22;20.60;77.30
25708;DHT22;13567;61.652;17.100;2022-10-18T09:59:52;20.30;78.70
25708;DHT22;13567;61.652;17.100;2022-10-18T10:02:22;19.90;80.10
25708;DHT22;13567;61.652;17.100;2022-10-18T10:04:50;21.30;78.60
25708;DHT22;13567;61.652;17.100;2022-10-18T10:07:21;22.30;74.50
25708;DHT22;13567;61.652;17.100;2022-10-18T10:09:58;21.70;70.80
25708;DHT22;13567;61.652;17.100;2022-10-18T10:12:32;20.50;74.30
25708;DHT22;13567;61.652;17.100;2022-10-18T10:18:16;21.40;73.50
25708;DHT22;13567;61.652;17.100;2022-10-18T10:20:50;21.10;73.70
25708;DHT22;13567;61.652;17.100;2022-10-18T10:23:25;21.00;72.90
25708;DHT22;13567;61.652;17.100;2022-10-18T10:25:56;21.90;72.40
25708;DHT22;13567;61.652;17.100;2022-10-18T10:28:42;23.00;70.40
25708;DHT22;13567;61.652;17.100;2022-10-18T10:31:28;22.10;67.40
25708;DHT22;13567;61.652;17.100;2022-10-18T10:34:26;22.00;69.60
25708;DHT22;13567;61.652;17.100;2022-10-18T10:36:54;22.30;69.10
25708;DHT22;13567;61.652;17.100;2022-10-18T10:39:23;22.10;69.40
25708;DHT22;13567;61.652;17.100;2022-10-18T10:41:52;22.00;68.50
25708;DHT22;13567;61.652;17.100;2022-10-18T10:44:22;22.00;69.00
25708;DHT22;13567;61.652;17.100;2022-10-18T10:46:50;22.20;66.60
25708;DHT22;13567;61.652;17.100;2022-10-18T10:49:39;22.50;67.60
25708;DHT22;13567;61.652;17.100;2022-10-18T10:52:23;22.50;66.90
25708;DHT22;13567;61.652;17.100;2022-10-18T10:54:55;22.60;64.20
25708;DHT22;13567;61.652;17.100;2022-10-18T10:57:45;21.70;65.90
25708;DHT22;13567;61.652;17.100;2022-10-18T11:00:51;21.50;67.30
25708;DHT22;13567;61.652;17.100;2022-10-18T11:03:21;21.00;69.30
25708;DHT22;13567;61.652;17.100;2022-10-18T11:05:55;21.30;67.60
25708;DHT22;13567;61.652;17.100;2022-10-18T11:08:27;21.90;67.20
25708;DHT22;13567;61.652;17.100;2022-10-18T11:11:19;23.30;63.90
25708;DHT22;13567;61.652;17.100;2022-10-18T11:13:55;22.80;62.90
25708;DHT22;13567;61.652;17.100;2022-10-18T11:23:00;22.50;64.20
25708;DHT22;13567;61.652;17.100;2022-10-18T11:31:26;23.90;59.80
25708;DHT22;13567;61.652;17.100;2022-10-18T11:42:49;23.40;60.20
25708;DHT22;13567;61.652;17.100;2022-10-18T11:45:45;23.50;58.00
25708;DHT22;13567;61.652;17.100;2022-10-18T11:51:13;21.90;59.20
25708;DHT22;13567;61.652;17.100;2022-10-18T11:59:54;17.80;70.90
25708;DHT22;13567;61.652;17.100;2022-10-18T12:05:15;20.50;64.90
25708;DHT22;13567;61.652;17.100;2022-10-18T12:07:56;22.00;62.40
25708;DHT22;13567;61.652;17.100;2022-10-18T12:10:24;23.00;61.30
25708;DHT22;13567;61.652;17.100;2022-10-18T12:16:10;21.00;60.80
25708;DHT22;13567;61.652;17.100;2022-10-18T12:19:06;18.70;66.40
25708;DHT22;13567;61.652;17.100;2022-10-18T12:21:37;17.70;71.00
25708;DHT22;13567;61.652;17.100;2022-10-18T12:24:11;18.90;70.70
25708;DHT22;13567;61.652;17.100;2022-10-18T12:26:41;20.70;64.40
25708;DHT22;13567;61.652;17.100;2022-10-18T12:32:04;20.10;64.50
25708;DHT22;13567;61.652;17.100;2022-10-18T12:34:56;19.00;65.80
25708;DHT22;13567;61.652;17.100;2022-10-18T12:42:48;14.70;80.80
25708;DHT22;13567;61.652;17.100;2022-10-18T12:45:25;14.40;83.30
25708;DHT22;13567;61.652;17.100;2022-10-18T12:47:54;14.30;83.90
25708;DHT22;13567;61.652;17.100;2022-10-18T12:50:40;14.70;83.30
25708;DHT22;13567;61.652;17.100;2022-10-18T12:55:40;16.70;76.40
25708;DHT22;13567;61.652;17.100;2022-10-18T12:58:25;17.70;75.60
25708;DHT22;13567;61.652;17.100;2022-10-18T13:00:56;18.30;72.40
25708;DHT22;13567;61.652;17.100;2022-10-18T13:03:49;18.80;74.30
25708;DHT22;13567;61.652;17.100;2022-10-18T13:06:17;19.60;70.10
25708;DHT22;13567;61.652;17.100;2022-10-18T13:08:44;19.90;68.10
25708;DHT22;13567;61.652;17.100;2022-10-18T13:11:30;19.40;67.50
25708;DHT22;13567;61.652;17.100;2022-10-18T13:25:58;15.40;76.70
25708;DHT22;13567;61.652;17.100;2022-10-18T13:31:41;14.20;80.10
25708;DHT22;13567;61.652;17.100;2022-10-18T13:34:32;14.50;81.50
25708;DHT22;13567;61.652;17.100;2022-10-18T13:37:18;15.60;78.60
25708;DHT22;13567;61.652;17.100;2022-10-18T13:39:46;15.50;77.40
25708;DHT22;13567;61.652;17.100;2022-10-18T13:44:41;15.50;79.40
25708;DHT22;13567;61.652;17.100;2022-10-18T13:47:15;16.00;76.60
25708;DHT22;13567;61.652;17.100;2022-10-18T13:50:20;16.70;76.20
25708;DHT22;13567;61.652;17.100;2022-10-18T13:53:26;17.40;73.70
25708;DHT22;13567;61.652;17.100;2022-10-18T14:04:54;13.10;84.80
25708;DHT22;13567;61.652;17.100;2022-10-18T14:07:45;12.30;88.90
25708;DHT22;13567;61.652;17.100;2022-10-18T14:11:21;12.80;89.60
25708;DHT22;13567;61.652;17.100;2022-10-18T14:18:54;14.30;83.00
25708;DHT22;13567;61.652;17.100;2022-10-18T14:21:29;14.50;81.10
25708;DHT22;13567;61.652;17.100;2022-10-18T14:23:57;14.30;79.00
25708;DHT22;13567;61.652;17.100;2022-10-18T14:26:24;14.00;79.40
25708;DHT22;13567;61.652;17.100;2022-10-18T14:29:05;14.00;79.90
25708;DHT22;13567;61.652;17.100;2022-10-18T14:31:33;13.80;79.30
25708;DHT22;13567;61.652;17.100;2022-10-18T14:34:01;13.10;81.60
25708;DHT22;13567;61.652;17.100;2022-10-18T14:36:36;12.40;84.90
25708;DHT22;13567;61.652;17.100;2022-10-18T14:39:06;11.50;88.20
25708;DHT22;13567;61.652;17.100;2022-10-18T14:41:54;10.70;90.50
25708;DHT22;13567;61.652;17.100;2022-10-18T14:44:26;10.00;91.90
25708;DHT22;13567;61.652;17.100;2022-10-18T14:47:13;9.70;92.60
25708;DHT22;13567;61.652;17.100;2022-10-18T14:49:44;9.40;94.00
25708;DHT22;13567;61.652;17.100;2022-10-18T14:52:16;9.20;94.40
25708;DHT22;13567;61.652;17.100;2022-10-18T14:54:44;9.10;95.20
25708;DHT22;13567;61.652;17.100;2022-10-18T14:57:37;9.00;95.30
25708;DHT22;13567;61.652;17.100;2022-10-18T15:00:07;8.90;95.80
25708;DHT22;13567;61.652;17.100;2022-10-18T15:02:36;8.80;96.10
25708;DHT22;13567;61.652;17.100;2022-10-18T15:05:17;8.60;96.50
25708;DHT22;13567;61.652;17.100;2022-10-18T15:07:46;8.40;97.40
25708;DHT22;13567;61.652;17.100;2022-10-18T15:10:16;8.30;98.20
25708;DHT22;13567;61.652;17.100;2022-10-18T15:12:44;8.10;99.00
25708;DHT22;13567;61.652;17.100;2022-10-18T15:15:32;8.10;99.80
25708;DHT22;13567;61.652;17.100;2022-10-18T15:18:00;7.90;99.90
25708;DHT22;13567;61.652;17.100;2022-10-18T15:20:32;7.80;99.90
25708;DHT22;13567;61.652;17.100;2022-10-18T15:23:28;7.70;99.90
25708;DHT22;13567;61.652;17.100;2022-10-18T15:26:07;7.60;99.90
25708;DHT22;13567;61.652;17.100;2022-10-18T15:28:42;7.50;99.90
25708;DHT22;13567;61.652;17.100;2022-10-18T15:31:32;7.50;99.90
25708;DHT22;13567;61.652;17.100;2022-10-18T15:36:37;7.30;99.90
25708;DHT22;13567;61.652;17.100;2022-10-18T15:39:14;7.30;99.90
25708;DHT22;13567;61.652;17.100;2022-10-18T15:41:54;7.20;99.90
25708;DHT22;13567;61.652;17.100;2022-10-18T15:44:30;7.20;99.90
25708;DHT22;13567;61.652;17.100;2022-10-18T15:52:28;6.80;99.90
25708;DHT22;13567;61.652;17.100;2022-10-18T15:58:21;6.70;99.90
25708;DHT22;13567;61.652;17.100;2022-10-18T16:00:50;6.60;99.90
25708;DHT22;13567;61.652;17.100;2022-10-18T16:03:18;6.50;99.90
25708;DHT22;13567;61.652;17.100;2022-10-18T16:05:47;6.50;99.90
25708;DHT22;13567;61.652;17.100;2022-10-18T16:08:23;6.40;99.90
25708;DHT22;13567;61.652;17.100;2022-10-18T16:10:51;6.30;99.90
25708;DHT22;13567;61.652;17.100;2022-10-18T16:13:18;6.40;99.90
25708;DHT22;13567;61.652;17.100;2022-10-18T16:15:45;6.40;99.90
25708;DHT22;13567;61.652;17.100;2022-10-18T16:18:15;6.30;99.90
25708;DHT22;13567;61.652;17.100;2022-10-18T16:20:43;6.40;99.90
25708;DHT22;13567;61.652;17.100;2022-10-18T16:23:22;6.40;99.90
25708;DHT22;13567;61.652;17.100;2022-10-18T16:25:50;6.40;99.90
25708;DHT22;13567;61.652;17.100;2022-10-18T16:28:22;6.30;99.90
25708;DHT22;13567;61.652;17.100;2022-10-18T16:30:57;6.20;99.90
25708;DHT22;13567;61.652;17.100;2022-10-18T16:33:25;6.20;99.90
25708;DHT22;13567;61.652;17.100;2022-10-18T16:35:52;6.20;99.90
25708;DHT22;13567;61.652;17.100;2022-10-18T16:38:29;6.10;99.90
25708;DHT22;13567;61.652;17.100;2022-10-18T16:41:05;6.10;99.90
25708;DHT22;13567;61.652;17.100;2022-10-18T16:43:33;6.10;99.90
25708;DHT22;13567;61.652;17.100;2022-10-18T16:46:01;6.20;99.90
25708;DHT22;13567;61.652;17.100;2022-10-18T16:48:29;6.30;99.90
25708;DHT22;13567;61.652;17.100;2022-10-18T16:50:56;6.30;99.90
25708;DHT22;13567;61.652;17.100;2022-10-18T16:53:24;6.40;99.90
25708;DHT22;13567;61.652;17.100;2022-10-18T16:55:57;6.60;99.90
25708;DHT22;13567;61.652;17.100;2022-10-18T16:58:27;6.60;99.90
25708;DHT22;13567;61.652;17.100;2022-10-18T17:00:55;6.60;99.90
25708;DHT22;13567;61.652;17.100;2022-10-18T17:03:22;6.60;99.90
25708;DHT22;13567;61.652;17.100;2022-10-18T17:05:50;6.60;99.90
25708;DHT22;13567;61.652;17.100;2022-10-18T17:08:22;6.60;99.90
25708;DHT22;13567;61.652;17.100;2022-10-18T17:10:52;6.50;99.90
25708;DHT22;13567;61.652;17.100;2022-10-18T17:13:19;6.50;99.90
25708;DHT22;13567;61.652;17.100;2022-10-18T17:15:48;6.60;99.90
25708;DHT22;13567;61.652;17.100;2022-10-18T17:18:18;6.60;99.90
25708;DHT22;13567;61.652;17.100;2022-10-18T17:20:46;6.60;99.90
25708;DHT22;13567;61.652;17.100;2022-10-18T17:23:13;6.60;99.90
25708;DHT22;13567;61.652;17.100;2022-10-18T17:25:41;6.60;99.90
25708;DHT22;13567;61.652;17.100;2022-10-18T17:28:30;6.60;99.90
25708;DHT22;13567;61.652;17.100;2022-10-18T17:30:57;6.50;99.90
25708;DHT22;13567;61.652;17.100;2022-10-18T17:33:24;6.50;99.90
25708;DHT22;13567;61.652;17.100;2022-10-18T17:35:51;6.40;99.90
25708;DHT22;13567;61.652;17.100;2022-10-18T17:38:18;6.30;99.90
25708;DHT22;13567;61.652;17.100;2022-10-18T17:40:45;6.20;99.90
25708;DHT22;13567;61.652;17.100;2022-10-18T17:43:12;6.20;99.90
25708;DHT22;13567;61.652;17.100;2022-10-18T17:45:47;6.10;99.90
25708;DHT22;13567;61.652;17.100;2022-10-18T17:48:14;6.10;99.90
25708;DHT22;13567;61.652;17.100;2022-10-18T17:50:41;6.00;99.90
25708;DHT22;13567;61.652;17.100;2022-10-18T17:53:08;5.90;99.90
25708;DHT22;13567;61.652;17.100;2022-10-18T17:55:36;5.80;99.90
25708;DHT22;13567;61.652;17.100;2022-10-18T17:58:03;5.70;99.90
25708;DHT22;13567;61.652;17.100;2022-10-18T18:00:30;5.60;99.90
25708;DHT22;13567;61.652;17.100;2022-10-18T18:02:59;5.60;99.90
25708;DHT22;13567;61.652;17.100;2022-10-18T18:05:30;5.50;99.90
25708;DHT22;13567;61.652;17.100;2022-10-18T18:07:58;5.40;99.90
25708;DHT22;13567;61.652;17.100;2022-10-18T18:10:32;5.40;99.90
25708;DHT22;13567;61.652;17.100;2022-10-18T18:12:59;5.30;99.90
25708;DHT22;13567;61.652;17.100;2022-10-18T18:15:27;5.20;99.90
25708;DHT22;13567;61.652;17.100;2022-10-18T18:17:54;5.20;99.90
25708;DHT22;13567;61.652;17.100;2022-10-18T18:20:24;5.20;99.90